Time;durP1;ratioP1;P1;durP2;ratioP2;P2;SDS_P1;SDS_P2;PMS_P1;PMS_P2;Temp;Humidity;BMP_temperature;BMP_pressure;BME280_temperature;BME280_humidity;BME280_pressure;Samples;Min_cycle;Max_cycle;Signal;HPM_P1;HPM_P2
2023/12/21 00:00:36;;;;;;;23.48;18.13;;;8.30;99.90;;;;;;4903336;29;20051;-50
2023/12/21 00:03:02;;;;;;;16.77;12.85;;;8.30;99.90;;;;;;4934988;29;20035;-49
2023/12/21 00:05:27;;;;;;;14.23;10.15;;;8.40;99.90;;;;;;4951036;29;20046;-50
2023/12/21 00:07:53;;;;;;;12.30;9.27;;;8.20;99.90;;;;;;4935960;29;20051;-49
2023/12/21 00:10:19;;;;;;;11.57;8.30;;;8.10;99.90;;;;;;4953612;29;20071;-51
2023/12/21 00:12:44;;;;;;;15.90;9.63;;;8.20;99.90;;;;;;4953461;29;20117;-50
2023/12/21 00:15:11;;;;;;;14.00;9.77;;;8.20;99.90;;;;;;4953722;29;20075;-50
2023/12/21 00:17:36;;;;;;;13.15;9.65;;;8.10;99.90;;;;;;4904213;29;20039;-50
2023/12/21 00:20:03;;;;;;;12.90;8.95;;;8.10;99.90;;;;;;4953716;29;20085;-49
2023/12/21 00:22:28;;;;;;;10.88;7.85;;;8.20;99.90;;;;;;4953547;29;20081;-50
2023/12/21 00:24:54;;;;;;;14.32;10.57;;;8.20;99.90;;;;;;4953684;29;20023;-51
2023/12/21 00:27:20;;;;;;;11.50;8.93;;;8.20;99.90;;;;;;4953631;29;20089;-50
2023/12/21 00:29:45;;;;;;;12.65;8.95;;;8.20;99.90;;;;;;4903838;29;20035;-49
2023/12/21 00:32:11;;;;;;;12.27;9.68;;;8.20;99.90;;;;;;4953359;29;20020;-49
2023/12/21 00:34:38;;;;;;;13.57;10.45;;;8.20;99.90;;;;;;4953595;29;20034;-49
2023/12/21 00:37:04;;;;;;;12.18;9.80;;;8.20;99.90;;;;;;4904483;29;20050;-50
2023/12/21 00:39:30;;;;;;;12.68;9.15;;;8.20;99.90;;;;;;4953466;29;20027;-48
2023/12/21 00:41:56;;;;;;;11.93;9.23;;;8.10;99.90;;;;;;4954074;28;20558;-51
2023/12/21 00:44:22;;;;;;;14.73;11.25;;;8.10;99.90;;;;;;4957329;29;20031;-49
2023/12/21 00:46:47;;;;;;;13.98;10.23;;;8.10;99.90;;;;;;4957024;29;20043;-50
2023/12/21 00:49:13;;;;;;;14.27;11.05;;;8.10;99.90;;;;;;4955051;29;20042;-48
2023/12/21 00:51:39;;;;;;;13.20;11.23;;;8.20;99.90;;;;;;4957184;29;20039;-49
2023/12/21 00:54:04;;;;;;;12.50;9.48;;;8.20;99.90;;;;;;4957242;29;20027;-49
2023/12/21 00:56:30;;;;;;;11.48;9.07;;;8.20;99.90;;;;;;4907491;29;20039;-49
2023/12/21 00:58:59;;;;;;;11.00;8.65;;;8.30;99.90;;;;;;4954689;29;20047;-49
2023/12/21 01:01:26;;;;;;;10.40;7.57;;;8.40;99.90;;;;;;4957356;29;20114;-51
2023/12/21 01:03:52;;;;;;;11.50;8.25;;;8.50;99.90;;;;;;4956831;29;20039;-50
2023/12/21 01:06:18;;;;;;;11.80;8.70;;;8.50;99.90;;;;;;4956721;29;20091;-51
2023/12/21 01:08:44;;;;;;;10.35;7.93;;;8.50;99.90;;;;;;4906126;29;20114;-49
2023/12/21 01:11:10;;;;;;;11.15;8.55;;;8.50;99.90;;;;;;4956529;29;20038;-50
2023/12/21 01:13:36;;;;;;;8.80;6.65;;;8.50;99.90;;;;;;4956713;29;20162;-51
2023/12/21 01:16:02;;;;;;;26.15;17.88;;;8.50;99.90;;;;;;4956868;29;20063;-50
2023/12/21 01:18:28;;;;;;;11.82;8.93;;;8.60;99.90;;;;;;4907299;29;20498;-49
2023/12/21 01:20:54;;;;;;;11.25;8.43;;;8.60;99.90;;;;;;4938385;29;20174;-50
2023/12/21 01:23:20;;;;;;;13.73;9.65;;;8.70;99.90;;;;;;4956579;29;20043;-51
2023/12/21 01:25:46;;;;;;;10.77;9.32;;;8.70;99.90;;;;;;4956454;29;20142;-49
2023/12/21 01:28:12;;;;;;;12.70;10.30;;;8.60;99.90;;;;;;4956392;29;20032;-50
2023/12/21 01:30:37;;;;;;;11.20;8.63;;;8.70;99.90;;;;;;4956492;29;20567;-50
2023/12/21 01:33:03;;;;;;;10.48;8.80;;;8.70;99.90;;;;;;4890987;29;20054;-49
2023/12/21 01:35:29;;;;;;;10.10;8.07;;;8.70;99.90;;;;;;4922189;29;20502;-49
2023/12/21 01:37:55;;;;;;;11.35;8.25;;;8.70;99.90;;;;;;4956549;29;20031;-49
2023/12/21 01:40:22;;;;;;;9.68;7.90;;;8.50;99.90;;;;;;4956316;29;20516;-50
2023/12/21 01:42:49;;;;;;;11.07;8.25;;;8.40;99.90;;;;;;4956218;29;20041;-49
2023/12/21 01:45:15;;;;;;;11.23;8.45;;;8.50;99.90;;;;;;4956199;29;20136;-50
2023/12/21 01:47:41;;;;;;;10.60;7.32;;;8.60;99.90;;;;;;4938065;29;20542;-51
2023/12/21 01:50:08;;;;;;;11.00;7.90;;;8.60;99.90;;;;;;4956153;29;20530;-50
2023/12/21 01:52:35;;;;;;;10.27;7.68;;;8.60;99.90;;;;;;4956015;28;20030;-50
2023/12/21 01:55:03;;;;;;;14.55;10.20;;;8.70;99.90;;;;;;4955116;29;20352;-50
2023/12/21 01:57:28;;;;;;;10.70;7.93;;;8.70;99.90;;;;;;4955916;29;20026;-50
2023/12/21 01:59:54;;;;;;;9.82;7.93;;;8.70;99.90;;;;;;4955774;29;20058;-49
2023/12/21 02:02:20;;;;;;;12.20;8.98;;;8.70;99.90;;;;;;4956021;29;20030;-50
2023/12/21 02:04:47;;;;;;;9.85;7.65;;;8.70;99.90;;;;;;4921886;29;20071;-50
2023/12/21 02:07:13;;;;;;;12.75;8.70;;;8.70;99.90;;;;;;4921756;29;20043;-50
2023/12/21 02:09:38;;;;;;;9.98;8.20;;;8.60;99.90;;;;;;4937461;29;20112;-48
2023/12/21 02:12:04;;;;;;;10.02;8.30;;;8.60;99.90;;;;;;4955888;29;20107;-50
2023/12/21 02:14:30;;;;;;;9.98;7.88;;;8.50;99.90;;;;;;4921735;29;20451;-49
2023/12/21 02:17:01;;;;;;;10.40;7.78;;;8.50;99.90;;;;;;4921291;29;20465;-50
2023/12/21 02:19:28;;;;;;;11.93;7.93;;;8.50;99.90;;;;;;4955803;29;20118;-50
2023/12/21 02:21:56;;;;;;;12.73;9.63;;;8.50;99.90;;;;;;4938411;29;20434;-49
2023/12/21 02:24:22;;;;;;;12.40;9.82;;;8.40;99.90;;;;;;4955542;29;20054;-50
2023/12/21 02:26:48;;;;;;;9.15;7.65;;;8.50;99.90;;;;;;4955666;29;20510;-50
2023/12/21 02:29:14;;;;;;;9.52;8.02;;;8.50;99.90;;;;;;4955355;29;20035;-50
2023/12/21 02:31:40;;;;;;;9.45;6.95;;;8.60;99.90;;;;;;4955111;29;20143;-50
2023/12/21 02:34:06;;;;;;;10.20;8.07;;;8.50;99.90;;;;;;4905371;29;20475;-51
2023/12/21 02:36:32;;;;;;;8.32;6.63;;;8.50;99.90;;;;;;4955406;29;20375;-50
2023/12/21 02:38:58;;;;;;;9.60;6.45;;;8.40;99.90;;;;;;4955076;29;20030;-49
2023/12/21 02:41:23;;;;;;;18.63;11.57;;;8.30;99.90;;;;;;4955299;29;20031;-50
2023/12/21 02:43:49;;;;;;;43.80;21.23;;;8.30;99.90;;;;;;4954893;29;20059;-50
2023/12/21 02:46:15;;;;;;;66.07;34.25;;;8.30;99.90;;;;;;4905500;29;20057;-49
2023/12/21 02:48:41;;;;;;;12.68;9.40;;;8.40;99.90;;;;;;4954898;29;20059;-49
2023/12/21 02:51:06;;;;;;;10.18;6.68;;;8.40;99.90;;;;;;4954970;29;20035;-49
2023/12/21 02:53:32;;;;;;;8.65;5.97;;;8.50;99.90;;;;;;4905286;29;20036;-50
2023/12/21 02:55:58;;;;;;;9.05;5.57;;;8.50;99.90;;;;;;4955296;29;20760;-50
2023/12/21 02:58:23;;;;;;;17.48;10.30;;;8.50;99.90;;;;;;4954941;29;20058;-51
2023/12/21 03:00:50;;;;;;;23.80;13.52;;;8.50;99.90;;;;;;4954480;29;20066;-50
2023/12/21 03:03:16;;;;;;;12.43;9.07;;;8.50;99.90;;;;;;4914105;29;20040;-49
2023/12/21 03:05:41;;;;;;;17.95;8.95;;;8.50;99.90;;;;;;4913848;29;20483;-50
2023/12/21 03:08:07;;;;;;;9.00;5.82;;;8.30;99.90;;;;;;4913989;29;20440;-49
2023/12/21 03:10:33;;;;;;;18.33;8.98;;;8.30;99.90;;;;;;4914365;29;20075;-50
2023/12/21 03:12:59;;;;;;;7.40;4.93;;;8.30;99.90;;;;;;4914080;29;20046;-48
2023/12/21 03:15:24;;;;;;;9.65;7.10;;;8.30;99.90;;;;;;4914197;29;20032;-49
2023/12/21 03:17:51;;;;;;;8.20;7.32;;;8.30;99.90;;;;;;4913953;29;20060;-50
2023/12/21 03:20:17;;;;;;;22.33;14.88;;;8.30;99.90;;;;;;4914054;29;20040;-50
2023/12/21 03:22:43;;;;;;;32.05;19.52;;;8.30;99.90;;;;;;4913825;29;20037;-50
2023/12/21 03:25:08;;;;;;;23.98;14.35;;;8.30;99.90;;;;;;4913951;29;20513;-50
2023/12/21 03:27:34;;;;;;;13.80;8.82;;;8.30;99.90;;;;;;4913918;29;20032;-50
2023/12/21 03:30:00;;;;;;;5.90;4.45;;;8.40;99.90;;;;;;4913751;29;20095;-49
2023/12/21 03:32:27;;;;;;;6.03;4.45;;;8.40;99.90;;;;;;4913718;29;20115;-50
2023/12/21 03:34:52;;;;;;;24.45;19.20;;;8.40;99.90;;;;;;4927425;29;20130;-51
2023/12/21 03:37:18;;;;;;;14.52;11.40;;;8.40;99.90;;;;;;4952207;29;20626;-50
2023/12/21 03:39:44;;;;;;;32.58;24.08;;;8.30;99.90;;;;;;4954219;29;20059;-50
2023/12/21 03:42:10;;;;;;;21.45;16.38;;;8.40;99.90;;;;;;4952053;29;20410;-49
2023/12/21 03:44:36;;;;;;;53.28;39.05;;;8.40;99.90;;;;;;4904590;29;20111;-49
2023/12/21 03:47:01;;;;;;;23.40;16.35;;;8.50;99.90;;;;;;4954008;29;20059;-49
2023/12/21 03:49:29;;;;;;;7.63;5.75;;;8.40;99.90;;;;;;4954332;29;20527;-49
2023/12/21 03:51:58;;;;;;;9.05;6.50;;;8.50;99.90;;;;;;4954181;29;20038;-49
2023/12/21 03:54:23;;;;;;;42.25;30.67;;;8.50;99.90;;;;;;4953983;29;20035;-50
2023/12/21 03:56:49;;;;;;;40.13;29.33;;;8.50;99.90;;;;;;4953950;29;20479;-49
2023/12/21 03:59:15;;;;;;;88.18;60.97;;;8.50;99.90;;;;;;4953661;29;20059;-49
2023/12/21 04:01:40;;;;;;;56.13;42.63;;;8.40;99.90;;;;;;4953813;29;20038;-50
2023/12/21 04:04:06;;;;;;;31.67;25.50;;;8.40;99.90;;;;;;4953819;29;20459;-49
2023/12/21 04:06:32;;;;;;;26.05;19.67;;;8.50;99.90;;;;;;4953948;29;20035;-50
2023/12/21 04:08:58;;;;;;;20.48;13.43;;;8.50;99.90;;;;;;4953895;29;20031;-49
2023/12/21 04:11:23;;;;;;;17.27;11.00;;;8.50;99.90;;;;;;4953692;29;20031;-50
2023/12/21 04:13:50;;;;;;;7.05;5.63;;;8.50;99.90;;;;;;4953949;29;20027;-50
2023/12/21 04:16:16;;;;;;;7.82;5.40;;;8.60;99.90;;;;;;4935579;29;20045;-49
2023/12/21 04:18:41;;;;;;;14.77;9.38;;;8.60;99.90;;;;;;4957416;29;20118;-49
2023/12/21 04:21:08;;;;;;;13.40;9.18;;;8.60;99.90;;;;;;4957891;29;20019;-50
2023/12/21 04:23:34;;;;;;;15.25;10.35;;;8.60;99.90;;;;;;4957798;29;20035;-49
2023/12/21 04:26:00;;;;;;;14.68;9.65;;;8.60;99.90;;;;;;4957533;29;20031;-50
2023/12/21 04:28:25;;;;;;;14.25;8.80;;;8.60;99.90;;;;;;4957613;29;20451;-50
2023/12/21 04:30:51;;;;;;;12.40;6.55;;;8.60;99.90;;;;;;4957636;29;20027;-49
2023/12/21 04:33:17;;;;;;;11.23;7.35;;;8.60;99.90;;;;;;4957381;29;20058;-50
2023/12/21 04:35:44;;;;;;;12.82;8.00;;;8.70;99.90;;;;;;4957510;29;20089;-50
2023/12/21 04:38:10;;;;;;;10.68;6.85;;;8.70;99.90;;;;;;4957833;29;20042;-50
2023/12/21 04:40:36;;;;;;;9.30;6.03;;;8.70;99.90;;;;;;4923353;29;20039;-50
2023/12/21 04:43:02;;;;;;;11.60;7.15;;;8.70;99.90;;;;;;4957259;29;20161;-49
2023/12/21 04:45:28;;;;;;;18.80;11.88;;;8.80;99.90;;;;;;4907415;29;20050;-49
2023/12/21 04:47:54;;;;;;;18.02;8.82;;;8.90;99.90;;;;;;4957450;29;20023;-53
2023/12/21 04:50:20;;;;;;;9.27;6.13;;;8.90;99.90;;;;;;4957216;29;20378;-49
2023/12/21 04:52:46;;;;;;;8.35;5.75;;;8.90;99.90;;;;;;4956845;29;20070;-50
2023/12/21 04:55:13;;;;;;;7.63;5.25;;;8.90;99.90;;;;;;4957362;29;20039;-50
2023/12/21 04:57:39;;;;;;;7.15;5.22;;;8.90;99.90;;;;;;4957088;29;20041;-50
2023/12/21 05:00:07;;;;;;;32.25;25.25;;;8.90;99.90;;;;;;4956852;29;20055;-49
2023/12/21 05:02:33;;;;;;;26.45;18.73;;;9.00;99.90;;;;;;4900365;29;20040;-50
2023/12/21 05:04:59;;;;;;;25.90;19.85;;;9.00;99.90;;;;;;4916259;29;20048;-50
2023/12/21 05:07:26;;;;;;;22.60;15.18;;;8.90;99.90;;;;;;4900231;29;20036;-49
2023/12/21 05:09:58;;;;;;;14.73;12.25;;;8.90;99.90;;;;;;4916383;29;20028;-50
2023/12/21 05:12:25;;;;;;;19.52;12.90;;;8.80;99.90;;;;;;4916090;29;20044;-49
2023/12/21 05:14:51;;;;;;;11.65;8.65;;;8.60;99.90;;;;;;4916090;29;20441;-50
2023/12/21 05:17:17;;;;;;;13.18;9.25;;;8.20;99.90;;;;;;4916019;29;20040;-50
2023/12/21 05:19:44;;;;;;;12.30;9.45;;;7.80;99.90;;;;;;4915935;29;20087;-49
2023/12/21 05:22:10;;;;;;;10.88;8.50;;;7.40;99.90;;;;;;4926001;29;20048;-50
2023/12/21 05:24:40;;;;;;;14.77;10.70;;;7.50;99.90;;;;;;4934960;29;20040;-48
2023/12/21 05:27:06;;;;;;;15.85;11.52;;;7.40;99.90;;;;;;4934988;29;20118;-49
2023/12/21 05:29:32;;;;;;;16.13;10.85;;;7.40;99.90;;;;;;4923620;29;20120;-49
2023/12/21 05:31:58;;;;;;;14.18;9.63;;;7.70;99.90;;;;;;4884047;29;20036;-49
2023/12/21 05:34:23;;;;;;;18.92;10.07;;;7.70;99.90;;;;;;4950570;29;20419;-51
2023/12/21 05:36:50;;;;;;;19.30;10.30;;;7.90;99.90;;;;;;4956699;29;20525;-49
2023/12/21 05:39:16;;;;;;;20.27;11.25;;;8.00;99.90;;;;;;4938303;29;20407;-49
2023/12/21 05:41:42;;;;;;;19.73;11.93;;;8.20;99.90;;;;;;4956499;29;20070;-48
2023/12/21 05:44:08;;;;;;;22.40;11.88;;;;;;;;;;4935557;29;20687;-49
2023/12/21 05:46:34;;;;;;;18.42;10.43;;;8.10;99.90;;;;;;4934332;29;20059;-49
2023/12/21 05:49:00;;;;;;;22.35;11.70;;;8.20;99.90;;;;;;4918635;29;20039;-49
2023/12/21 05:51:26;;;;;;;25.52;18.08;;;8.20;99.90;;;;;;4934303;29;20048;-49
2023/12/21 05:53:51;;;;;;;20.65;11.57;;;8.10;99.90;;;;;;4934590;29;20080;-49
2023/12/21 05:56:17;;;;;;;26.42;12.23;;;8.10;99.90;;;;;;4918559;29;20046;-49
2023/12/21 05:58:43;;;;;;;22.63;12.00;;;8.10;99.90;;;;;;4934129;29;20024;-50
2023/12/21 06:01:11;;;;;;;28.45;13.98;;;8.20;99.90;;;;;;4934222;29;20128;-50
2023/12/21 06:03:37;;;;;;;21.92;12.10;;;8.30;99.90;;;;;;4934285;29;20460;-49
2023/12/21 06:06:04;;;;;;;50.63;27.33;;;8.30;99.90;;;;;;4934180;29;20051;-51
2023/12/21 06:08:29;;;;;;;66.50;40.15;;;8.20;99.90;;;;;;4918265;29;20051;-50
2023/12/21 06:10:55;;;;;;;46.15;27.63;;;8.20;99.90;;;;;;4918433;29;20040;-48
2023/12/21 06:13:21;;;;;;;29.08;17.27;;;8.30;99.90;;;;;;4934184;29;20039;-50
2023/12/21 06:15:47;;;;;;;28.20;17.42;;;8.30;99.90;;;;;;4934011;29;20024;-50
2023/12/21 06:18:12;;;;;;;20.08;13.18;;;8.30;99.90;;;;;;4950608;29;20439;-50
2023/12/21 06:20:38;;;;;;;21.58;11.95;;;8.40;99.90;;;;;;4955695;29;20039;-49
2023/12/21 06:23:04;;;;;;;38.30;16.55;;;8.40;99.90;;;;;;4937615;29;20055;-49
2023/12/21 06:25:30;;;;;;;29.50;14.90;;;8.40;99.90;;;;;;4954158;29;20040;-49
2023/12/21 06:27:56;;;;;;;60.33;37.40;;;8.50;99.90;;;;;;4954284;29;20039;-51
2023/12/21 06:30:21;;;;;;;55.75;34.67;;;8.40;99.60;;;;;;4955205;29;20043;-49
2023/12/21 06:32:47;;;;;;;19.38;14.75;;;8.30;99.40;;;;;;4905274;29;20175;-51
2023/12/21 06:35:13;;;;;;;14.75;10.30;;;8.20;99.90;;;;;;4954104;29;20039;-50
2023/12/21 06:37:39;;;;;;;13.57;9.20;;;7.50;99.90;;;;;;4955264;29;20114;-48
2023/12/21 06:40:06;;;;;;;15.23;10.00;;;7.30;99.90;;;;;;4953806;28;20117;-50
2023/12/21 06:42:32;;;;;;;14.18;9.68;;;7.40;99.90;;;;;;4905335;29;20035;-52
2023/12/21 06:44:57;;;;;;;14.45;9.80;;;7.00;99.90;;;;;;4955235;29;20372;-52
2023/12/21 06:47:23;;;;;;;30.83;20.00;;;6.50;99.90;;;;;;4953400;29;20125;-48
2023/12/21 06:49:49;;;;;;;29.48;20.88;;;6.30;99.90;;;;;;4954339;29;20064;-50
2023/12/21 06:52:14;;;;;;;19.65;13.18;;;6.30;99.90;;;;;;4955266;29;20035;-50
2023/12/21 06:54:40;;;;;;;22.00;13.68;;;7.20;99.90;;;;;;4955114;29;20027;-52
2023/12/21 06:57:07;;;;;;;17.98;11.60;;;7.60;99.90;;;;;;4937737;29;20110;-52
2023/12/21 06:59:33;;;;;;;15.32;11.57;;;7.60;99.90;;;;;;4952603;29;20078;-52
2023/12/21 07:01:59;;;;;;;35.17;26.42;;;7.30;99.90;;;;;;4952053;29;20063;-51
2023/12/21 07:04:24;;;;;;;33.03;26.45;;;7.40;99.90;;;;;;4954978;29;20031;-53
2023/12/21 07:06:51;;;;;;;64.72;49.28;;;7.50;99.90;;;;;;4953183;29;20041;-49
2023/12/21 07:09:17;;;;;;;60.88;39.58;;;8.00;99.90;;;;;;4945688;29;20031;-51
2023/12/21 07:11:43;;;;;;;17.75;12.18;;;8.40;99.90;;;;;;4944706;29;20102;-49
2023/12/21 07:14:09;;;;;;;12.27;8.35;;;8.10;99.90;;;;;;4945423;29;20027;-51
2023/12/21 07:16:35;;;;;;;12.73;8.30;;;;;;;;;;4943414;29;20075;-48
2023/12/21 07:19:02;;;;;;;20.23;12.48;;;7.00;99.90;;;;;;4944437;29;20496;-50
2023/12/21 07:21:29;;;;;;;15.73;10.13;;;6.40;99.90;;;;;;4919296;29;20040;-52
2023/12/21 07:23:54;;;;;;;22.65;15.30;;;6.30;99.90;;;;;;4917378;29;20043;-52
2023/12/21 07:26:20;;;;;;;13.10;9.15;;;6.40;99.90;;;;;;4945604;29;20031;-48
2023/12/21 07:28:46;;;;;;;11.63;8.45;;;6.30;99.90;;;;;;4945490;29;20027;-50
2023/12/21 07:31:13;;;;;;;10.35;7.22;;;;;;;;;;4948587;29;20110;-50
2023/12/21 07:33:40;;;;;;;10.52;6.78;;;6.10;99.90;;;;;;4950363;29;20028;-49
2023/12/21 07:36:07;;;;;;;12.77;7.72;;;6.20;99.90;;;;;;4954673;29;20077;-48
2023/12/21 07:38:33;;;;;;;14.48;9.75;;;6.30;99.90;;;;;;4954637;29;20110;-49
2023/12/21 07:40:59;;;;;;;14.20;9.75;;;6.70;99.90;;;;;;4954361;29;20031;-49
2023/12/21 07:43:25;;;;;;;12.57;7.30;;;;;;;;;;4920640;29;20046;-51
2023/12/21 07:45:52;;;;;;;12.88;10.63;;;7.50;99.90;;;;;;4953976;29;20042;-49
2023/12/21 07:48:18;;;;;;;10.70;8.05;;;8.60;99.90;;;;;;4954092;29;20032;-51
2023/12/21 07:50:44;;;;;;;9.65;6.88;;;;;;;;;;4953939;28;20039;-49
2023/12/21 07:53:10;;;;;;;8.93;6.38;;;;;;;;;;4953981;29;20031;-52
2023/12/21 07:55:36;;;;;;;10.00;7.10;;;10.10;99.90;;;;;;4952617;29;20031;-53
2023/12/21 07:58:02;;;;;;;12.40;7.97;;;10.70;99.80;;;;;;4953588;29;20031;-50
2023/12/21 08:00:28;;;;;;;10.65;9.20;;;;;;;;;;4919199;29;20133;-52
2023/12/21 08:02:54;;;;;;;10.57;7.57;;;9.60;99.00;;;;;;4899863;29;20053;-52
2023/12/21 08:05:22;;;;;;;17.90;8.30;;;9.00;99.90;;;;;;4952413;29;20102;-51
2023/12/21 08:07:51;;;;;;;12.88;8.93;;;8.30;99.90;;;;;;4953234;29;20035;-52
2023/12/21 08:10:17;;;;;;;15.93;10.98;;;8.00;99.90;;;;;;4953382;29;20352;-50
2023/12/21 08:12:44;;;;;;;14.25;10.13;;;;;;;;;;4953172;29;20030;-52
2023/12/21 08:15:10;;;;;;;8.95;6.47;;;7.70;99.90;;;;;;4953408;29;20527;-53
2023/12/21 08:17:36;;;;;;;9.15;5.85;;;7.50;99.90;;;;;;4953179;29;20118;-50
2023/12/21 08:20:05;;;;;;;6.60;5.05;;;7.50;99.90;;;;;;4951146;29;20435;-51
2023/12/21 08:22:31;;;;;;;7.25;5.40;;;7.60;99.90;;;;;;4953162;29;20062;-52
2023/12/21 08:24:58;;;;;;;6.95;4.88;;;7.60;99.90;;;;;;4953450;29;20035;-53
2023/12/21 08:27:24;;;;;;;8.43;5.38;;;7.90;99.90;;;;;;4953526;29;20039;-49
2023/12/21 08:29:53;;;;;;;8.13;5.40;;;8.90;99.90;;;;;;4952803;29;20503;-53
2023/12/21 08:32:19;;;;;;;7.90;5.93;;;;;;;;;;4932248;29;20070;-52
2023/12/21 08:34:45;;;;;;;7.93;7.18;;;10.90;99.90;;;;;;4942369;29;20066;-51
2023/12/21 08:37:14;;;;;;;8.55;7.70;;;;;;;;;;4953965;29;20032;-51
2023/12/21 08:39:40;;;;;;;8.80;7.88;;;;;;;;;;4953065;29;20493;-52
2023/12/21 08:42:08;;;;;;;7.93;7.13;;;15.00;92.60;;;;;;4935526;29;20122;-53
2023/12/21 08:44:36;;;;;;;7.00;6.32;;;15.00;91.50;;;;;;4953784;29;20043;-53
2023/12/21 08:47:02;;;;;;;7.43;6.60;;;;;;;;;;4918853;29;20059;-51
2023/12/21 08:49:28;;;;;;;8.98;8.07;;;15.80;90.70;;;;;;4903498;29;20062;-52
2023/12/21 08:51:53;;;;;;;7.63;6.68;;;16.30;90.80;;;;;;4935647;29;20054;-53
2023/12/21 08:54:19;;;;;;;7.07;6.43;;;15.60;89.70;;;;;;4952853;29;20023;-53
2023/12/21 08:56:46;;;;;;;7.57;6.40;;;15.40;90.00;;;;;;4953270;29;20059;-50
2023/12/21 08:59:11;;;;;;;7.13;6.40;;;15.50;89.60;;;;;;4950652;29;20051;-54
2023/12/21 09:01:37;;;;;;;7.03;6.25;;;15.70;89.30;;;;;;4935039;29;20046;-54
2023/12/21 09:04:04;;;;;;;6.97;6.28;;;;;;;;;;4955889;28;20391;-52
2023/12/21 09:06:31;;;;;;;7.10;6.50;;;;;;;;;;4957054;29;20119;-51
2023/12/21 09:08:57;;;;;;;6.20;5.68;;;17.80;84.70;;;;;;4956204;29;20031;-50
2023/12/21 09:11:24;;;;;;;6.63;5.95;;;;;;;;;;4955965;29;20392;-53
2023/12/21 09:13:50;;;;;;;6.90;6.20;;;18.10;83.80;;;;;;4956813;29;20028;-54
2023/12/21 09:16:17;;;;;;;6.65;6.05;;;18.60;82.90;;;;;;4954341;29;20058;-52
2023/12/21 09:18:46;;;;;;;27.00;7.45;;;18.20;82.20;;;;;;4938187;29;20035;-51
2023/12/21 09:21:12;;;;;;;6.93;6.22;;;18.30;83.20;;;;;;4956361;29;20035;-49
2023/12/21 09:23:41;;;;;;;6.38;5.78;;;17.90;82.10;;;;;;4956873;29;20038;-50
2023/12/21 09:26:10;;;;;;;6.90;6.30;;;17.60;82.00;;;;;;4956496;29;20106;-50
2023/12/21 09:28:37;;;;;;;7.10;6.40;;;18.30;83.30;;;;;;4956389;29;20499;-49
2023/12/21 09:31:04;;;;;;;9.00;8.15;;;17.30;82.80;;;;;;4955986;29;20019;-49
2023/12/21 09:33:34;;;;;;;6.63;6.13;;;17.40;81.50;;;;;;4922457;29;20074;-50
2023/12/21 09:36:01;;;;;;;7.50;6.80;;;;;;;;;;4955683;29;20043;-49
2023/12/21 09:38:27;;;;;;;6.75;6.25;;;;;;;;;;4956337;29;20035;-51
2023/12/21 09:40:53;;;;;;;7.55;6.95;;;17.10;99.90;;;;;;4956439;29;20027;-50
2023/12/21 09:43:21;;;;;;;7.78;7.28;;;;;;;;;;4956245;29;20035;-51
2023/12/21 09:45:51;;;;;;;6.00;5.40;;;;;;;;;;4956183;29;20035;-51
2023/12/21 09:48:18;;;;;;;6.07;5.47;;;16.40;80.70;;;;;;4956212;29;20392;-50
2023/12/21 09:50:45;;;;;;;6.82;5.97;;;16.60;81.60;;;;;;4956213;29;20054;-49
2023/12/21 09:53:15;;;;;;;7.18;6.22;;;17.20;81.60;;;;;;4956165;29;20031;-51
2023/12/21 09:55:46;;;;;;;6.53;6.10;;;18.60;80.20;;;;;;4956064;29;20055;-50
2023/12/21 09:58:12;;;;;;;3.85;3.45;;;16.60;78.00;;;;;;4956022;29;20035;-52
2023/12/21 10:00:39;;;;;;;5.47;4.90;;;17.70;79.20;;;;;;4955687;29;20134;-52
2023/12/21 10:03:05;;;;;;;8.98;5.65;;;;;;;;;;4955885;29;20027;-52
2023/12/21 10:05:32;;;;;;;7.57;5.90;;;19.40;84.60;;;;;;4956073;29;20125;-49
2023/12/21 10:07:58;;;;;;;2.80;2.60;;;18.60;76.70;;;;;;4955684;29;20442;-49
2023/12/21 10:10:27;;;;;;;2.97;2.70;;;17.10;77.70;;;;;;4955727;29;20031;-52
2023/12/21 10:12:53;;;;;;;4.55;3.28;;;;;;;;;;4955678;29;20090;-51
2023/12/21 10:15:20;;;;;;;3.38;2.72;;;;;;;;;;4955068;28;20027;-52
2023/12/21 10:17:46;;;;;;;5.20;4.00;;;15.90;78.70;;;;;;4955578;29;20035;-51
2023/12/21 10:20:12;;;;;;;2.70;2.50;;;16.00;79.60;;;;;;4955653;29;20019;-50
2023/12/21 10:22:42;;;;;;;4.15;2.30;;;15.70;79.80;;;;;;4955587;29;20102;-49
2023/12/21 10:25:10;;;;;;;2.20;2.00;;;16.50;82.70;;;;;;4952869;29;20031;-50
2023/12/21 10:27:36;;;;;;;13.23;8.27;;;15.60;83.50;;;;;;4955885;29;20033;-50
2023/12/21 10:30:03;;;;;;;3.03;2.65;;;16.50;80.40;;;;;;4955521;29;20027;-52
2023/12/21 10:32:29;;;;;;;14.23;9.77;;;16.10;87.80;;;;;;4921311;29;20402;-52
2023/12/21 10:34:58;;;;;;;1.50;1.40;;;;;;;;;;4955411;29;20041;-51
2023/12/21 10:37:24;;;;;;;1.80;1.30;;;;;;;;;;4955332;29;20039;-52
2023/12/21 10:39:52;;;;;;;1.60;1.50;;;;;;;;;;4955264;29;20027;-51
2023/12/21 10:42:22;;;;;;;1.70;1.60;;;;;;;;;;4937076;29;20051;-50
2023/12/21 10:44:48;;;;;;;16.13;9.68;;;;;;;;;;4955330;29;20065;-51
2023/12/21 10:47:18;;;;;;;8.40;5.15;;;17.00;78.30;;;;;;4955116;29;20062;-49
2023/12/21 10:49:44;;;;;;;1.67;1.58;;;;;;;;;;4955029;29;20023;-49
2023/12/21 10:52:14;;;;;;;1.20;1.10;;;;;;;;;;4955495;29;20023;-50
2023/12/21 10:54:43;;;;;;;5.03;3.20;;;;;;;;;;4954873;29;20071;-51
2023/12/21 10:57:09;;;;;;;17.25;10.02;;;;;;;;;;4955023;29;20028;-49
2023/12/21 10:59:36;;;;;;;9.63;5.88;;;16.60;85.30;;;;;;4954938;29;20131;-49
2023/12/21 11:02:03;;;;;;;2.53;1.98;;;16.30;79.40;;;;;;4954899;29;20050;-50
2023/12/21 11:04:29;;;;;;;11.90;7.28;;;15.80;85.00;;;;;;4921083;29;20082;-49
2023/12/21 11:06:56;;;;;;;13.90;5.78;;;16.30;80.20;;;;;;4954684;29;20067;-50
2023/12/21 11:09:25;;;;;;;12.32;8.52;;;;;;;;;;4954722;29;20038;-51
2023/12/21 11:11:57;;;;;;;2.75;2.03;;;19.60;78.50;;;;;;4955011;29;20062;-51
2023/12/21 11:14:23;;;;;;;3.35;2.10;;;;;;;;;;4954693;29;20082;-50
2023/12/21 11:16:53;;;;;;;6.05;4.20;;;;;;;;;;4936600;29;20074;-50
2023/12/21 11:19:31;;;;;;;6.15;4.10;;;;;;;;;;4954932;29;20035;-52
2023/12/21 11:21:58;;;;;;;4.15;2.58;;;;;;;;;;4954183;29;20086;-51
2023/12/21 11:24:24;;;;;;;6.85;3.13;;;16.00;77.20;;;;;;4954547;29;20035;-52
2023/12/21 11:26:51;;;;;;;7.28;6.57;;;;;;;;;;4954061;28;20134;-52
2023/12/21 11:29:26;;;;;;;6.10;2.97;;;;;;;;;;4954767;29;20030;-50
2023/12/21 11:31:53;;;;;;;9.80;6.10;;;;;;;;;;4954186;29;20050;-52
2023/12/21 11:34:21;;;;;;;4.55;2.35;;;21.30;91.60;;;;;;4954299;29;20031;-52
2023/12/21 11:36:49;;;;;;;56.53;24.15;;;19.70;71.00;;;;;;4920790;29;20464;-51
2023/12/21 11:39:22;;;;;;;4.20;2.95;;;18.20;72.70;;;;;;4954537;29;20035;-52
2023/12/21 11:41:57;;;;;;;1.60;1.35;;;17.90;73.60;;;;;;4953988;29;20031;-51
2023/12/21 11:44:24;;;;;;;5.72;5.13;;;16.80;74.50;;;;;;4954363;29;20027;-51
2023/12/21 11:46:50;;;;;;;4.47;2.90;;;;;;;;;;4954052;29;20054;-50
2023/12/21 11:49:26;;;;;;;5.43;3.53;;;;;;;;;;4954317;29;20027;-49
2023/12/21 11:51:52;;;;;;;2.38;1.77;;;20.20;92.90;;;;;;4954181;29;20039;-52
2023/12/21 11:54:19;;;;;;;3.08;1.70;;;18.30;73.10;;;;;;4954318;29;20031;-52
2023/12/21 11:56:46;;;;;;;2.13;1.55;;;;;;;;;;4953844;29;20511;-51
2023/12/21 11:59:14;;;;;;;4.82;2.38;;;16.60;89.30;;;;;;4953800;29;20090;-52
2023/12/21 12:01:44;;;;;;;1.88;1.35;;;17.10;88.80;;;;;;4953770;29;20619;-50
2023/12/21 12:04:12;;;;;;;1.63;1.52;;;;;;;;;;4954279;29;20046;-49
2023/12/21 12:06:38;;;;;;;0.98;0.95;;;;;;;;;;4954279;29;20073;-49
2023/12/21 12:09:05;;;;;;;1.60;1.10;;;15.40;77.20;;;;;;4954082;29;20111;-50
2023/12/21 12:11:32;;;;;;;1.95;1.60;;;15.30;82.90;;;;;;4950873;29;20115;-51
2023/12/21 12:13:58;;;;;;;1.08;0.90;;;15.50;78.70;;;;;;4953759;29;20495;-50
2023/12/21 12:16:24;;;;;;;3.38;2.00;;;15.30;78.20;;;;;;4953722;29;20360;-49
2023/12/21 12:18:50;;;;;;;3.92;2.78;;;15.60;78.90;;;;;;4953566;29;20027;-50
2023/12/21 12:21:16;;;;;;;7.07;3.78;;;15.80;79.30;;;;;;4953417;29;20395;-49
2023/12/21 12:23:46;;;;;;;3.50;2.40;;;15.40;79.20;;;;;;4953610;29;20039;-51
2023/12/21 12:26:18;;;;;;;3.33;1.50;;;15.60;78.60;;;;;;4951528;29;20403;-49
2023/12/21 12:28:46;;;;;;;5.18;3.72;;;15.10;78.40;;;;;;4953688;29;20055;-51
2023/12/21 12:31:12;;;;;;;3.42;2.40;;;15.20;78.10;;;;;;4953589;29;20053;-51
2023/12/21 12:33:39;;;;;;;3.50;2.33;;;14.20;81.40;;;;;;4953916;29;20031;-51
2023/12/21 12:36:05;;;;;;;2.50;1.92;;;15.40;84.00;;;;;;4953517;29;20039;-50
2023/12/21 12:38:31;;;;;;;2.83;1.35;;;14.60;78.70;;;;;;4889951;29;20123;-52
2023/12/21 12:40:58;;;;;;;4.35;2.33;;;14.30;79.70;;;;;;4957100;29;20465;-50
2023/12/21 12:43:27;;;;;;;2.00;1.80;;;14.20;79.90;;;;;;4957338;29;20074;-51
2023/12/21 12:45:55;;;;;;;2.75;1.08;;;;;;;;;;4957120;29;20050;-49
2023/12/21 12:48:21;;;;;;;2.33;1.40;;;14.20;93.70;;;;;;4957280;29;20035;-51
2023/12/21 12:50:47;;;;;;;2.97;1.42;;;13.90;80.70;;;;;;4957251;29;20035;-52
2023/12/21 12:53:15;;;;;;;6.20;1.38;;;14.10;81.00;;;;;;4957116;29;20027;-50